createdAt,value
2023-04-30T00:00:31.462Z,5.50
2023-04-30T00:02:59.241Z,5.35
2023-04-30T00:05:26.722Z,5.65
2023-04-30T00:07:54.166Z,5.22
2023-04-30T00:10:21.831Z,5.25
2023-04-30T00:12:49.259Z,4.65
2023-04-30T00:15:16.759Z,5.18
2023-04-30T00:17:44.468Z,4.95
2023-04-30T00:20:12.467Z,5.20
2023-04-30T00:22:39.910Z,5.45
2023-04-30T00:25:07.812Z,5.12
2023-04-30T00:27:35.196Z,4.85
2023-04-30T00:30:02.792Z,5.20
2023-04-30T00:32:32.187Z,5.28
2023-04-30T00:34:59.626Z,4.78
2023-04-30T00:37:27.058Z,5.40
2023-04-30T00:39:54.998Z,5.00
2023-04-30T00:42:22.585Z,4.72
2023-04-30T00:44:49.990Z,4.87
2023-04-30T00:47:17.920Z,4.68
2023-04-30T00:49:45.314Z,4.85
2023-04-30T00:52:13.265Z,4.82
2023-04-30T00:54:41.457Z,5.00
2023-04-30T00:57:09.869Z,4.55
2023-04-30T00:59:37.291Z,4.68
2023-04-30T01:02:05.119Z,4.65
2023-04-30T01:04:33.553Z,4.40
2023-04-30T01:07:02.241Z,4.75
2023-04-30T01:09:30.031Z,4.10
2023-04-30T01:12:25.977Z,4.70
2023-04-30T01:14:58.956Z,4.55
2023-04-30T01:17:35.488Z,4.35
2023-04-30T01:20:03.256Z,4.37
2023-04-30T01:22:37.286Z,4.25
2023-04-30T01:25:32.990Z,4.40
2023-04-30T01:28:03.936Z,4.40
2023-04-30T01:30:32.008Z,5.32
2023-04-30T01:32:59.635Z,4.70
2023-04-30T01:36:02.573Z,4.12
2023-04-30T01:38:45.436Z,4.60
2023-04-30T01:41:21.551Z,4.50
2023-04-30T01:43:59.364Z,4.65
2023-04-30T01:46:30.926Z,4.53
2023-04-30T01:49:02.224Z,4.20
2023-04-30T01:51:42.753Z,4.32
2023-04-30T01:54:18.175Z,4.72
2023-04-30T01:56:49.820Z,4.22
2023-04-30T01:59:17.603Z,4.32
2023-04-30T02:01:45.159Z,4.87
2023-04-30T02:04:12.916Z,3.95
2023-04-30T02:06:41.748Z,4.62
2023-04-30T02:09:10.692Z,3.75
2023-04-30T02:11:38.468Z,5.05
2023-04-30T02:14:06.251Z,4.60
2023-04-30T02:16:33.799Z,4.68
2023-04-30T02:19:02.054Z,4.15
2023-04-30T02:21:29.437Z,4.37
2023-04-30T02:23:56.894Z,4.25
2023-04-30T02:26:24.632Z,4.20
2023-04-30T02:28:52.124Z,4.25
2023-04-30T02:31:19.623Z,4.32
2023-04-30T02:33:47.369Z,4.28
2023-04-30T02:36:14.754Z,4.30
2023-04-30T02:38:42.233Z,3.95
2023-04-30T02:41:09.867Z,3.90
2023-04-30T02:43:37.344Z,4.25
2023-04-30T02:46:04.801Z,4.07
2023-04-30T02:48:32.549Z,4.47
2023-04-30T02:51:00.067Z,3.55
2023-04-30T02:53:27.495Z,3.90
2023-04-30T02:55:55.180Z,3.90
2023-04-30T02:58:22.581Z,3.92
2023-04-30T03:00:50.760Z,4.30
2023-04-30T03:03:18.556Z,4.15
2023-04-30T03:05:46.080Z,4.10
2023-04-30T03:08:13.552Z,3.70
2023-04-30T03:10:41.395Z,3.70
2023-04-30T03:13:08.887Z,4.20
2023-04-30T03:15:36.271Z,3.83
2023-04-30T03:18:04.410Z,4.15
2023-04-30T03:20:31.875Z,3.97
2023-04-30T03:22:59.290Z,3.87
2023-04-30T03:25:26.937Z,4.00
2023-04-30T03:27:54.386Z,4.05
2023-04-30T03:30:21.802Z,3.45
2023-04-30T03:32:49.519Z,4.30
2023-04-30T03:35:17.407Z,3.95
2023-04-30T03:37:44.832Z,4.18
2023-04-30T03:40:13.178Z,4.05
2023-04-30T03:42:40.629Z,4.12
2023-04-30T03:45:08.304Z,3.90
2023-04-30T03:47:36.112Z,3.85
2023-04-30T03:50:04.096Z,3.60
2023-04-30T03:52:31.575Z,4.20
2023-04-30T03:54:59.816Z,4.00
2023-04-30T03:57:27.246Z,3.80
2023-04-30T03:59:54.901Z,3.72
2023-04-30T04:02:23.154Z,3.85
2023-04-30T04:04:51.923Z,3.60
2023-04-30T04:07:19.374Z,3.55
2023-04-30T04:09:47.011Z,3.83
2023-04-30T04:12:14.681Z,3.78
2023-04-30T04:14:42.117Z,3.92
2023-04-30T04:17:09.566Z,3.80
2023-04-30T04:19:46.549Z,4.10
2023-04-30T04:22:16.142Z,4.03
2023-04-30T04:24:44.361Z,3.65
2023-04-30T04:27:12.228Z,3.78
2023-04-30T04:29:39.725Z,3.92
2023-04-30T04:32:07.990Z,3.72
2023-04-30T04:34:36.049Z,4.03
2023-04-30T04:37:03.482Z,3.80
2023-04-30T04:39:31.314Z,3.50
2023-04-30T04:41:58.875Z,4.10
2023-04-30T04:44:27.232Z,4.10
2023-04-30T04:46:56.865Z,3.67
2023-04-30T04:49:24.426Z,3.80
2023-04-30T04:51:52.514Z,4.12
2023-04-30T04:54:20.179Z,3.50
2023-04-30T04:56:47.783Z,3.28
2023-04-30T04:59:17.495Z,3.45
2023-04-30T05:01:45.745Z,3.03
2023-04-30T05:04:14.109Z,3.55
2023-04-30T05:06:42.709Z,3.67
2023-04-30T05:09:10.550Z,3.33
2023-04-30T05:11:38.341Z,3.65
2023-04-30T05:14:05.960Z,3.33
2023-04-30T05:16:33.755Z,3.25
2023-04-30T05:19:01.209Z,3.40
2023-04-30T05:21:29.846Z,3.60
2023-04-30T05:23:57.763Z,3.12
2023-04-30T05:26:25.221Z,3.20
2023-04-30T05:28:52.623Z,3.45
2023-04-30T05:31:21.095Z,3.30
2023-04-30T05:33:48.771Z,3.50
2023-04-30T05:36:16.236Z,3.17
2023-04-30T05:38:44.052Z,3.90
2023-04-30T05:41:12.469Z,3.15
2023-04-30T05:43:39.949Z,3.40
2023-04-30T05:46:07.713Z,2.97
2023-04-30T05:48:35.272Z,3.53
2023-04-30T05:51:02.981Z,3.30
2023-04-30T05:53:30.815Z,3.35
2023-04-30T05:55:58.312Z,3.12
2023-04-30T05:58:25.925Z,3.72
2023-04-30T06:00:53.658Z,3.60
2023-04-30T06:03:21.711Z,3.65
2023-04-30T06:05:49.280Z,3.20
2023-04-30T06:08:16.796Z,3.12
2023-04-30T06:10:44.786Z,3.10
2023-04-30T06:13:12.226Z,3.03
2023-04-30T06:15:39.610Z,3.33
2023-04-30T06:18:07.595Z,3.25
2023-04-30T06:20:35.098Z,3.35
2023-04-30T06:23:03.922Z,3.40
2023-04-30T06:27:59.797Z,2.92
2023-04-30T06:30:27.538Z,3.45
2023-04-30T06:32:55.708Z,3.65
2023-04-30T06:35:23.306Z,3.50
2023-04-30T06:37:50.726Z,3.95
2023-04-30T06:40:18.481Z,3.97
2023-04-30T06:42:47.463Z,3.58
2023-04-30T06:45:15.297Z,4.12
2023-04-30T06:47:43.340Z,3.70
2023-04-30T06:50:11.026Z,4.47
2023-04-30T06:52:38.733Z,4.22
2023-04-30T06:55:06.785Z,4.15
2023-04-30T06:57:34.275Z,4.32
2023-04-30T07:00:02.285Z,4.43
2023-04-30T07:05:16.169Z,3.30
2023-04-30T07:07:43.869Z,3.72
2023-04-30T07:10:11.502Z,3.72
2023-04-30T07:12:38.954Z,3.62
2023-04-30T07:15:07.182Z,3.67
2023-04-30T07:17:35.286Z,3.58
2023-04-30T07:20:04.583Z,4.15
2023-04-30T07:22:32.375Z,3.67
2023-04-30T07:25:00.674Z,3.70
2023-04-30T07:27:28.359Z,3.70
2023-04-30T07:29:56.567Z,3.50
2023-04-30T07:32:27.177Z,3.70
2023-04-30T07:34:54.675Z,3.80
2023-04-30T07:37:22.357Z,4.00
2023-04-30T07:39:49.748Z,3.60
2023-04-30T07:42:17.113Z,3.40
2023-04-30T07:44:44.822Z,3.70
2023-04-30T07:47:12.277Z,2.80
2023-04-30T07:49:39.696Z,3.50
2023-04-30T07:52:11.011Z,3.28
2023-04-30T07:54:40.089Z,4.15
2023-04-30T07:57:07.872Z,3.80
2023-04-30T07:59:35.412Z,3.62
2023-04-30T08:02:02.875Z,3.40
2023-04-30T08:04:30.701Z,3.17
2023-04-30T08:06:58.187Z,2.47
2023-04-30T08:09:25.645Z,3.40
2023-04-30T08:11:53.411Z,3.00
2023-04-30T08:14:21.612Z,3.37
2023-04-30T08:16:49.039Z,3.50
2023-04-30T08:19:17.973Z,3.10
2023-04-30T08:21:45.650Z,3.12
2023-04-30T08:24:13.122Z,2.90
2023-04-30T08:26:40.777Z,2.97
2023-04-30T08:29:11.262Z,3.00
2023-04-30T08:31:38.759Z,2.60
2023-04-30T08:34:06.771Z,2.83
2023-04-30T08:36:34.191Z,2.72
2023-04-30T08:39:02.189Z,2.70
2023-04-30T08:41:32.912Z,2.92
2023-04-30T08:44:01.671Z,3.08
2023-04-30T08:46:31.019Z,2.62
2023-04-30T08:48:58.833Z,2.90
2023-04-30T08:51:26.426Z,2.60
2023-04-30T08:53:55.080Z,2.78
2023-04-30T08:56:25.274Z,2.97
2023-04-30T09:01:20.185Z,2.87
2023-04-30T09:03:48.182Z,2.80
2023-04-30T09:06:16.924Z,2.75
2023-04-30T09:08:48.406Z,2.92
2023-04-30T09:11:28.945Z,2.67
2023-04-30T09:14:00.568Z,3.30
2023-04-30T09:16:48.042Z,3.25
2023-04-30T09:19:27.931Z,2.60
2023-04-30T09:24:23.250Z,3.12
2023-04-30T09:26:50.844Z,2.87
2023-04-30T09:29:18.706Z,2.83
2023-04-30T09:31:47.289Z,3.03
2023-04-30T09:34:15.353Z,2.90
2023-04-30T09:36:55.397Z,2.70
2023-04-30T09:39:22.848Z,3.08
2023-04-30T09:41:51.440Z,2.50
2023-04-30T09:44:28.619Z,3.03
2023-04-30T09:46:57.766Z,2.83
2023-04-30T09:49:26.082Z,3.05
2023-04-30T09:51:54.675Z,2.87
2023-04-30T09:54:27.928Z,2.62
2023-04-30T09:56:58.862Z,2.97
2023-04-30T09:59:33.031Z,2.75
2023-04-30T10:02:01.291Z,2.95
2023-04-30T10:04:36.683Z,2.85
2023-04-30T10:07:23.019Z,3.10
2023-04-30T10:09:55.807Z,3.22
2023-04-30T10:12:29.996Z,3.08
2023-04-30T10:14:59.971Z,2.92
2023-04-30T10:17:28.437Z,2.85
2023-04-30T10:19:57.909Z,2.47
2023-04-30T10:22:25.651Z,2.58
2023-04-30T10:24:53.876Z,2.90
2023-04-30T10:27:21.350Z,2.40
2023-04-30T10:29:49.190Z,2.62
2023-04-30T10:32:16.809Z,2.67
2023-04-30T10:35:07.416Z,2.87
2023-04-30T10:37:38.570Z,2.58
2023-04-30T10:40:09.153Z,2.87
2023-04-30T10:42:37.042Z,2.90
2023-04-30T10:45:04.739Z,2.58
2023-04-30T10:47:32.243Z,2.12
2023-04-30T10:50:09.625Z,2.33
2023-04-30T10:52:37.940Z,2.70
2023-04-30T10:55:07.516Z,2.05
2023-04-30T10:57:42.811Z,2.45
2023-04-30T11:00:10.466Z,2.62
2023-04-30T11:02:45.855Z,2.30
2023-04-30T11:05:18.099Z,2.17
2023-04-30T11:07:52.433Z,2.22
2023-04-30T11:10:25.092Z,2.25
2023-04-30T11:12:53.983Z,2.17
2023-04-30T11:15:25.638Z,2.00
2023-04-30T11:17:56.779Z,2.42
2023-04-30T11:20:25.538Z,2.97
2023-04-30T11:23:12.588Z,4.80
2023-04-30T11:25:46.932Z,6.35
2023-04-30T11:28:18.886Z,5.55
2023-04-30T11:30:52.691Z,6.40
2023-04-30T11:33:20.632Z,6.93
2023-04-30T11:35:55.712Z,6.40
2023-04-30T11:38:30.691Z,5.25
2023-04-30T11:40:58.551Z,4.70
2023-04-30T11:43:26.832Z,3.95
2023-04-30T11:46:09.416Z,4.80
2023-04-30T11:49:03.819Z,3.97
2023-04-30T11:51:31.485Z,4.03
2023-04-30T11:53:59.138Z,4.05
2023-04-30T11:56:27.629Z,3.50
2023-04-30T11:58:56.092Z,3.60
2023-04-30T12:01:27.204Z,3.35
2023-04-30T12:03:55.997Z,2.95
2023-04-30T12:06:28.344Z,3.00
2023-04-30T12:09:01.600Z,3.47
2023-04-30T12:11:29.775Z,2.53
2023-04-30T12:14:10.855Z,2.65
2023-04-30T12:16:49.406Z,2.75
2023-04-30T12:19:18.625Z,2.50
2023-04-30T12:21:47.277Z,2.55
2023-04-30T12:24:15.306Z,2.10
2023-04-30T12:26:43.137Z,2.25
2023-04-30T12:29:17.900Z,2.58
2023-04-30T12:31:45.795Z,2.12
2023-04-30T12:34:14.093Z,2.20
2023-04-30T12:36:44.308Z,2.47
2023-04-30T12:39:13.177Z,2.33
2023-04-30T12:41:44.349Z,2.35
2023-04-30T12:44:22.195Z,3.08
2023-04-30T12:46:50.467Z,2.33
2023-04-30T12:49:30.955Z,2.17
2023-04-30T12:52:07.545Z,2.20
2023-04-30T12:54:36.177Z,2.35
2023-04-30T12:57:10.881Z,2.55
2023-04-30T12:59:59.475Z,2.65
2023-04-30T13:02:32.089Z,2.20
2023-04-30T13:04:59.987Z,2.60
2023-04-30T13:07:27.404Z,2.42
2023-04-30T13:09:55.106Z,2.72
2023-04-30T13:12:22.976Z,2.45
2023-04-30T13:14:50.414Z,2.35
2023-04-30T13:17:17.866Z,2.47
2023-04-30T13:19:45.556Z,2.25
2023-04-30T13:22:13.439Z,2.25
2023-04-30T13:24:40.938Z,2.25
2023-04-30T13:27:08.677Z,2.00
2023-04-30T13:29:36.097Z,2.50
2023-04-30T13:32:04.229Z,2.03
2023-04-30T13:34:31.978Z,2.35
2023-04-30T13:36:59.536Z,2.35
2023-04-30T13:39:27.003Z,2.08
2023-04-30T13:41:54.655Z,2.12
2023-04-30T13:44:22.328Z,2.22
2023-04-30T13:46:50.150Z,2.05
2023-04-30T13:49:17.986Z,1.58
2023-04-30T13:51:45.448Z,2.00
2023-04-30T13:54:12.855Z,2.20
2023-04-30T13:56:40.569Z,1.98
2023-04-30T13:59:08.241Z,1.80
2023-04-30T14:01:35.651Z,1.70
2023-04-30T14:04:03.403Z,1.70
2023-04-30T14:06:31.141Z,1.92
2023-04-30T14:08:59.763Z,2.08
2023-04-30T14:11:27.622Z,1.73
2023-04-30T14:13:55.332Z,1.90
2023-04-30T14:16:22.837Z,1.80
2023-04-30T14:18:50.592Z,1.70
2023-04-30T14:21:17.984Z,1.80
2023-04-30T14:23:46.632Z,1.80
2023-04-30T14:26:14.702Z,1.92
2023-04-30T14:28:42.158Z,1.55
2023-04-30T14:31:10.606Z,1.87
2023-04-30T14:33:38.555Z,1.90
2023-04-30T14:36:06.872Z,1.80
2023-04-30T14:38:34.313Z,1.98
2023-04-30T14:41:01.990Z,1.67
2023-04-30T14:43:29.388Z,1.90
2023-04-30T14:45:56.906Z,2.20
2023-04-30T14:48:24.652Z,1.92
2023-04-30T14:50:52.297Z,1.73
2023-04-30T14:53:19.691Z,1.80
2023-04-30T14:55:47.658Z,2.05
2023-04-30T14:58:15.309Z,1.65
2023-04-30T15:00:42.793Z,1.98
2023-04-30T15:03:10.961Z,1.62
2023-04-30T15:05:38.431Z,1.92
2023-04-30T15:08:06.689Z,1.95
2023-04-30T15:10:34.475Z,1.75
2023-04-30T15:13:03.288Z,1.58
2023-04-30T15:15:31.214Z,1.65
2023-04-30T15:17:58.936Z,1.70
2023-04-30T15:20:26.424Z,1.52
2023-04-30T15:22:54.996Z,2.30
2023-04-30T15:25:24.112Z,1.55
2023-04-30T15:27:54.890Z,1.58
2023-04-30T15:30:22.287Z,1.60
2023-04-30T15:32:50.509Z,2.00
2023-04-30T18:18:03.414Z,1.90
2023-04-30T18:20:31.486Z,2.33
2023-04-30T18:22:59.031Z,2.50
2023-04-30T18:25:28.166Z,3.00
2023-04-30T18:27:56.110Z,2.92
2023-04-30T18:30:23.619Z,2.47
2023-04-30T18:32:51.396Z,2.55
2023-04-30T18:35:19.301Z,2.80
2023-04-30T18:37:46.731Z,2.90
2023-04-30T18:40:17.506Z,2.80
2023-04-30T18:42:45.894Z,2.80
2023-04-30T18:45:14.997Z,2.60
2023-04-30T18:47:43.011Z,2.60
2023-04-30T18:50:15.384Z,2.25
2023-04-30T18:52:43.226Z,3.10
2023-04-30T18:55:14.277Z,2.45
2023-04-30T18:57:43.305Z,2.92
2023-04-30T19:00:14.165Z,2.40
2023-04-30T19:02:43.504Z,2.53
2023-04-30T19:05:14.592Z,2.53
2023-04-30T19:07:45.336Z,2.60
2023-04-30T19:10:13.216Z,2.85
2023-04-30T19:12:41.732Z,2.25
2023-04-30T19:15:12.183Z,2.40
2023-04-30T19:17:40.769Z,2.62
2023-04-30T19:20:09.444Z,2.40
2023-04-30T19:22:37.853Z,3.00
2023-04-30T19:25:06.563Z,2.90
2023-04-30T19:27:34.509Z,2.40
2023-04-30T19:30:02.289Z,2.30
2023-04-30T19:32:30.592Z,2.37
2023-04-30T19:34:59.495Z,2.53
2023-04-30T19:37:27.937Z,2.47
2023-04-30T19:39:56.501Z,2.72
2023-04-30T19:42:24.860Z,2.00
2023-04-30T19:44:53.313Z,2.58
2023-04-30T19:47:24.781Z,2.40
2023-04-30T19:49:54.000Z,2.55
2023-04-30T19:52:22.074Z,2.55
2023-04-30T19:54:51.102Z,2.35
2023-04-30T19:57:20.335Z,2.37
2023-04-30T19:59:48.556Z,2.65
2023-04-30T20:02:16.667Z,2.50
2023-04-30T20:04:44.781Z,2.33
2023-04-30T20:07:12.761Z,2.70
2023-04-30T20:09:41.413Z,2.15
2023-04-30T20:12:10.016Z,2.65
2023-04-30T20:14:37.729Z,2.45
2023-04-30T20:17:08.393Z,2.53
2023-04-30T20:19:37.113Z,2.75
2023-04-30T20:22:05.710Z,3.12
2023-04-30T20:24:33.909Z,4.78
2023-04-30T20:27:02.053Z,5.15
2023-04-30T20:29:29.938Z,3.72
2023-04-30T20:31:58.493Z,3.45
2023-04-30T20:34:26.201Z,4.00
2023-04-30T20:36:54.506Z,4.32
2023-04-30T20:39:22.438Z,3.47
2023-04-30T20:41:50.430Z,3.78
2023-04-30T20:44:18.225Z,4.20
2023-04-30T20:46:45.940Z,4.07
2023-04-30T20:49:14.609Z,3.45
2023-04-30T20:51:42.049Z,3.90
2023-04-30T20:54:09.712Z,3.12
2023-04-30T20:56:37.719Z,2.95
2023-04-30T20:59:05.894Z,3.67
2023-04-30T21:01:34.480Z,3.87
2023-04-30T21:04:02.389Z,3.70
2023-04-30T21:06:29.831Z,3.55
2023-04-30T21:08:57.613Z,3.35
2023-04-30T21:11:25.954Z,3.60
2023-04-30T21:13:53.365Z,3.25
2023-04-30T21:16:20.990Z,3.40
2023-04-30T21:18:48.837Z,3.20
2023-04-30T21:21:17.015Z,3.15
2023-04-30T21:23:47.352Z,3.30
2023-04-30T21:26:16.552Z,3.70
2023-04-30T21:28:44.279Z,3.45
2023-04-30T21:31:11.815Z,3.42
2023-04-30T21:33:39.726Z,3.25
2023-04-30T21:36:07.504Z,3.62
2023-04-30T21:38:35.101Z,3.40
2023-04-30T21:41:02.813Z,3.30
2023-04-30T21:43:30.938Z,3.00
2023-04-30T21:46:02.913Z,3.30
2023-04-30T21:48:30.670Z,3.92
2023-04-30T21:50:58.115Z,2.92
2023-04-30T21:53:25.583Z,2.97
2023-04-30T21:55:53.307Z,3.25
2023-04-30T21:58:20.710Z,3.12
2023-04-30T22:00:48.916Z,2.80
2023-04-30T22:03:16.730Z,3.20
2023-04-30T22:05:44.529Z,3.05
2023-04-30T22:08:11.934Z,3.22
2023-04-30T22:10:39.651Z,2.78
2023-04-30T22:13:07.059Z,2.80
2023-04-30T22:15:47.031Z,2.83
2023-04-30T22:18:15.742Z,2.85
2023-04-30T22:20:43.146Z,3.00
2023-04-30T22:23:10.673Z,3.35
2023-04-30T22:25:38.356Z,3.20
2023-04-30T22:28:05.779Z,2.72
2023-04-30T22:30:33.163Z,3.30
2023-04-30T22:33:00.869Z,3.45
2023-04-30T22:35:28.328Z,2.72
2023-04-30T22:37:55.811Z,2.95
2023-04-30T22:40:23.471Z,2.80
2023-04-30T22:42:50.944Z,3.15
2023-04-30T22:45:18.493Z,2.62
2023-04-30T22:47:46.183Z,2.65
2023-04-30T22:50:13.616Z,2.78
2023-04-30T22:52:41.040Z,3.03
2023-04-30T22:55:08.850Z,2.90
2023-04-30T22:57:36.605Z,2.87
2023-04-30T23:00:05.009Z,2.95
2023-04-30T23:02:32.742Z,2.75
2023-04-30T23:05:00.113Z,2.60
2023-04-30T23:07:27.606Z,2.80
2023-04-30T23:09:55.510Z,2.58
2023-04-30T23:12:23.231Z,2.67
2023-04-30T23:14:50.976Z,2.40
2023-04-30T23:17:18.861Z,2.47
2023-04-30T23:19:46.367Z,2.50
2023-04-30T23:22:13.775Z,2.70
2023-04-30T23:24:41.455Z,2.70
2023-04-30T23:27:08.972Z,2.40
2023-04-30T23:29:36.647Z,2.42
2023-04-30T23:32:04.674Z,2.65
2023-04-30T23:34:32.296Z,2.78
2023-04-30T23:36:59.762Z,2.40
2023-04-30T23:39:27.419Z,2.35
2023-04-30T23:41:54.965Z,2.40
2023-04-30T23:44:22.344Z,3.25
2023-04-30T23:46:51.104Z,2.55
2023-04-30T23:49:18.889Z,2.20
2023-04-30T23:51:46.518Z,2.42
2023-04-30T23:54:14.309Z,2.80
2023-04-30T23:56:41.751Z,2.50
2023-04-30T23:59:10.240Z,2.22
